Time;durP1;ratioP1;P1;durP2;ratioP2;P2;SDS_P1;SDS_P2;PMS_P1;PMS_P2;Temp;Humidity;BMP_temperature;BMP_pressure;BME280_temperature;BME280_humidity;BME280_pressure;Samples;Min_cycle;Max_cycle;Signal;HPM_P1;HPM_P2
2024/01/14 00:00:53;;;;;;;9.03;5.70;;;;;;;3.50;67.87;99276.91;6170581;22;99364;-84
2024/01/14 00:03:19;;;;;;;7.83;5.30;;;;;;;3.48;67.62;99253.56;6196786;22;96435;-83
2024/01/14 00:05:45;;;;;;;6.90;5.20;;;;;;;3.42;67.90;99245.06;6196735;22;96757;-85
2024/01/14 00:08:10;;;;;;;7.07;5.30;;;;;;;3.29;68.04;99224.59;6170281;22;100699;-83
2024/01/14 00:10:36;;;;;;;8.40;5.90;;;;;;;3.40;68.50;99258.94;6221342;22;97889;-83
2024/01/14 00:13:01;;;;;;;9.37;5.27;;;;;;;3.34;68.17;99240.88;6171274;22;96501;-82
2024/01/14 00:15:27;;;;;;;7.77;5.60;;;;;;;3.50;68.37;99240.56;6196569;22;96786;-84
2024/01/14 00:17:52;;;;;;;9.73;6.13;;;;;;;3.46;67.93;99236.31;6221443;22;98092;-83
2024/01/14 00:20:18;;;;;;;8.17;5.77;;;;;;;3.58;67.64;99238.66;6221564;22;97900;-83
2024/01/14 00:22:43;;;;;;;8.73;5.97;;;;;;;3.53;67.27;99218.00;6170690;22;96559;-83
2024/01/14 00:25:11;;;;;;;6.83;5.27;;;;;;;3.48;67.45;99216.41;6171329;22;96754;-83
2024/01/14 00:27:37;;;;;;;7.33;5.30;;;;;;;3.50;67.25;99223.25;6195686;22;99485;-86
2024/01/14 00:30:03;;;;;;;7.37;5.07;;;;;;;3.58;67.04;99221.34;6170495;22;101384;-83
2024/01/14 00:32:29;;;;;;;7.97;5.37;;;;;;;3.83;67.02;99237.19;6196236;22;96457;-83
2024/01/14 00:34:55;;;;;;;7.10;5.17;;;;;;;3.81;66.47;99244.19;6171073;22;96776;-83
2024/01/14 00:37:20;;;;;;;7.63;5.17;;;;;;;3.71;66.17;99227.09;6195970;22;97572;-83
2024/01/14 00:39:45;;;;;;;7.83;5.70;;;;;;;3.54;66.42;99211.06;6170323;22;101407;-82
2024/01/14 00:42:11;;;;;;;7.90;5.13;;;;;;;3.68;66.71;99231.50;6196260;22;96506;-84
2024/01/14 00:44:36;;;;;;;10.40;6.13;;;;;;;3.57;66.55;99205.78;6196381;22;96483;-83
2024/01/14 00:47:02;;;;;;;8.03;5.40;;;;;;;3.58;66.81;99191.94;6196002;22;97923;-85
2024/01/14 00:49:28;;;;;;;7.47;5.43;;;;;;;3.81;66.62;99210.44;6195425;22;101326;-83
2024/01/14 00:51:53;;;;;;;8.40;5.73;;;;;;;3.80;66.61;99205.25;6195948;22;96436;-83
2024/01/14 00:54:18;;;;;;;8.53;5.17;;;;;;;3.54;66.84;99167.78;6196448;22;96455;-83
2024/01/14 00:56:44;;;;;;;7.33;4.83;;;;;;;3.43;67.06;99169.78;6221014;22;97596;-83
2024/01/14 00:59:10;;;;;;;7.00;5.23;;;;;;;3.61;67.24;99190.13;6195343;22;99759;-83
2024/01/14 01:01:35;;;;;;;8.07;5.70;;;;;;;3.47;67.07;99184.41;6170883;22;96581;-83
2024/01/14 01:04:01;;;;;;;6.13;5.40;;;;;;;3.48;66.96;99190.44;6196170;22;97122;-83
2024/01/14 01:06:26;;;;;;;8.10;5.43;;;;;;;3.62;67.34;99197.00;6170336;22;101561;-83
2024/01/14 01:08:52;;;;;;;7.40;5.60;;;;;;;3.61;67.09;99200.50;6195780;22;97330;-83
2024/01/14 01:11:17;;;;;;;8.83;5.70;;;;;;;3.46;66.84;99149.00;6196154;22;96474;-85
2024/01/14 01:13:43;;;;;;;7.97;5.70;;;;;;;3.64;67.23;99181.44;6196357;22;96840;-83
2024/01/14 01:16:08;;;;;;;8.00;5.70;;;;;;;3.67;67.00;99175.31;6195637;22;101393;-83
2024/01/14 01:18:34;;;;;;;7.33;5.73;;;;;;;3.77;66.94;99167.25;6248573;22;97725;-84
2024/01/14 01:21:00;;;;;;;6.67;4.90;;;;;;;3.70;66.39;99160.50;6195738;22;96575;-84
2024/01/14 01:23:26;;;;;;;7.57;5.50;;;;;;;3.67;66.44;99165.78;6196263;22;96703;-83
2024/01/14 01:25:51;;;;;;;6.67;5.07;;;;;;;3.79;66.53;99177.59;6195316;22;101668;-83
2024/01/14 01:28:17;;;;;;;7.77;5.30;;;;;;;3.73;65.73;99157.84;6221009;22;98432;-83
2024/01/14 01:30:43;;;;;;;8.60;5.53;;;;;;;3.94;65.74;99168.56;6221699;22;96548;-84
2024/01/14 01:33:08;;;;;;;6.93;4.73;;;;;;;3.55;65.74;99111.56;6196544;22;96721;-83
2024/01/14 01:35:33;;;;;;;6.23;4.70;;;;;;;3.66;65.38;99103.50;6170380;22;101003;-84
2024/01/14 01:37:59;;;;;;;7.33;5.20;;;;;;;3.63;64.98;99130.38;6170471;22;101265;-84
2024/01/14 01:40:24;;;;;;;7.93;4.63;;;;;;;3.51;65.16;99086.59;6196028;22;96478;-83
2024/01/14 01:42:50;;;;;;;7.97;5.27;;;;;;;3.77;64.92;99127.47;6195983;22;96750;-83
2024/01/14 01:45:15;;;;;;;9.17;5.50;;;;;;;3.70;65.33;99118.13;6220788;22;97874;-84
2024/01/14 01:47:41;;;;;;;5.30;4.33;;;;;;;3.64;65.05;99106.16;6195500;22;102039;-84
2024/01/14 01:50:08;;;;;;;6.87;4.40;;;;;;;3.62;64.89;99111.38;6196023;22;96477;-83
2024/01/14 01:52:34;;;;;;;6.27;4.70;;;;;;;3.63;65.43;99107.88;6190519;22;96762;-84
2024/01/14 01:55:01;;;;;;;5.77;3.90;;;;;;;3.65;65.49;99094.88;6165118;22;100945;-83
2024/01/14 01:57:27;;;;;;;5.57;4.10;;;;;;;3.79;65.01;99102.31;6190233;22;101450;-83
2024/01/14 01:59:53;;;;;;;7.80;4.20;;;;;;;3.69;65.60;99103.44;6165705;22;96490;-84
2024/01/14 02:02:20;;;;;;;6.40;4.57;;;;;;;3.66;65.94;99096.56;6190335;22;96794;-85
2024/01/14 02:04:46;;;;;;;10.07;5.03;;;;;;;3.71;65.72;99083.50;6190245;22;101437;-83
2024/01/14 02:07:12;;;;;;;6.77;4.20;;;;;;;3.69;65.51;99083.50;6190622;22;97547;-83
2024/01/14 02:09:38;;;;;;;5.47;4.10;;;;;;;3.54;65.36;99047.59;6216199;22;96547;-83
2024/01/14 02:12:03;;;;;;;5.27;3.97;;;;;;;3.74;65.34;99089.44;6216343;22;96759;-83
2024/01/14 02:14:29;;;;;;;7.33;4.63;;;;;;;3.72;65.99;99085.19;6164999;22;101497;-82
2024/01/14 02:16:54;;;;;;;6.80;4.27;;;;;;;3.67;66.33;99077.53;6190433;22;98396;-84
2024/01/14 02:19:20;;;;;;;9.80;4.77;;;;;;;3.61;67.56;99081.13;6190961;22;96500;-83
2024/01/14 02:21:46;;;;;;;9.10;4.03;;;;;;;3.27;68.17;99030.97;6165511;22;96825;-83
2024/01/14 02:24:14;;;;;;;7.63;4.33;;;;;;;3.58;67.97;99072.59;6215854;22;97759;-84
2024/01/14 02:26:40;;;;;;;6.17;4.40;;;;;;;3.42;68.54;99040.13;6217556;22;97876;-83
2024/01/14 02:29:07;;;;;;;7.37;4.60;;;;;;;3.50;68.65;99045.97;6165296;22;96511;-82
2024/01/14 02:31:32;;;;;;;8.60;4.70;;;;;;;3.49;68.61;99055.50;6216564;22;96793;-84
2024/01/14 02:33:58;;;;;;;8.47;4.83;;;;;;;3.60;68.67;99070.78;6215517;22;97756;-86
2024/01/14 02:36:24;;;;;;;10.00;4.50;;;;;;;3.27;69.39;99023.19;6215771;22;97526;-83
2024/01/14 02:38:49;;;;;;;7.80;4.53;;;;;;;3.39;69.44;99035.84;6216359;22;96485;-83
2024/01/14 02:41:15;;;;;;;8.83;3.93;;;;;;;3.42;70.08;99059.13;6216495;22;96660;-83
2024/01/14 02:43:40;;;;;;;7.63;4.00;;;;;;;3.45;70.08;99063.38;6164273;22;99779;-83
2024/01/14 02:46:06;;;;;;;7.93;4.77;;;;;;;3.26;70.21;99031.84;6164780;22;100869;-83
2024/01/14 02:48:31;;;;;;;7.63;4.37;;;;;;;3.47;70.07;99046.06;6165242;22;96535;-83
2024/01/14 02:50:57;;;;;;;5.03;3.57;;;;;;;3.58;69.69;99055.25;6191081;22;96404;-83
2024/01/14 02:53:22;;;;;;;6.90;4.70;;;;;;;3.54;70.38;99052.78;6215434;22;97869;-83
2024/01/14 02:55:48;;;;;;;6.67;4.67;;;;;;;3.55;70.20;99044.09;6189945;22;101620;-86
2024/01/14 02:58:13;;;;;;;7.20;4.27;;;;;;;3.70;69.78;99051.50;6190269;22;96525;-84
2024/01/14 03:00:39;;;;;;;6.70;4.13;;;;;;;3.52;69.78;99023.41;6216266;22;96642;-83
2024/01/14 03:03:04;;;;;;;8.57;4.47;;;;;;;3.48;70.18;99047.75;6164397;22;101210;-83
2024/01/14 03:05:30;;;;;;;7.40;4.50;;;;;;;3.53;70.35;99048.47;6164636;22;101368;-83
2024/01/14 03:07:55;;;;;;;7.30;4.73;;;;;;;3.54;69.73;99032.84;6190629;22;96477;-83
2024/01/14 03:10:22;;;;;;;5.83;3.70;;;;;;;3.49;69.98;99033.88;6216187;22;96450;-83
2024/01/14 03:12:47;;;;;;;8.87;4.37;;;;;;;3.46;69.87;99020.97;6190093;22;101338;-84
2024/01/14 03:15:13;;;;;;;6.47;3.93;;;;;;;3.37;70.12;99024.66;6166101;22;101161;-86
2024/01/14 03:17:38;;;;;;;9.50;4.37;;;;;;;3.40;70.10;99025.44;6166314;22;96582;-84
2024/01/14 03:20:04;;;;;;;7.50;3.53;;;;;;;3.61;69.54;99038.75;6191553;22;96771;-84
2024/01/14 03:22:30;;;;;;;8.63;3.57;;;;;;;3.40;70.03;99021.97;6216311;22;98435;-83
2024/01/14 03:24:55;;;;;;;5.57;3.63;;;;;;;3.60;69.99;99044.81;6191114;22;102020;-83
2024/01/14 03:27:21;;;;;;;7.13;4.00;;;;;;;3.45;69.60;99021.88;6166427;22;96474;-82
2024/01/14 03:29:46;;;;;;;6.47;3.37;;;;;;;3.46;69.58;99027.03;6166415;22;96942;-82
2024/01/14 03:32:12;;;;;;;5.67;3.47;;;;;;;3.33;69.97;99023.03;6191063;22;101128;-84
2024/01/14 03:34:37;;;;;;;5.33;3.40;;;;;;;3.27;69.79;99013.66;6190893;22;101413;-83
2024/01/14 03:37:03;;;;;;;8.60;4.80;;;;;;;3.54;69.61;99051.03;6215831;22;96424;-82
2024/01/14 03:39:28;;;;;;;9.67;4.93;;;;;;;3.46;69.20;99005.41;6189342;22;96760;-85
2024/01/14 03:41:54;;;;;;;7.27;3.43;;;;;;;3.56;69.40;99027.66;6188025;22;101236;-84
2024/01/14 03:44:19;;;;;;;9.10;3.67;;;;;;;3.76;69.08;99027.13;6187977;22;100997;-84
2024/01/14 03:46:45;;;;;;;9.40;4.17;;;;;;;3.84;68.73;99038.16;6188018;22;96487;-83
2024/01/14 03:49:10;;;;;;;5.33;3.60;;;;;;;3.86;68.26;99031.16;6188703;22;96717;-83
2024/01/14 03:51:36;;;;;;;5.40;3.30;;;;;;;3.71;68.50;99011.66;6189288;22;97839;-83
2024/01/14 03:54:01;;;;;;;6.13;3.20;;;;;;;3.81;68.30;99014.84;6193098;22;102144;-83
2024/01/14 03:56:27;;;;;;;6.37;3.13;;;;;;;3.63;68.48;99014.44;6246739;22;96464;-82
2024/01/14 03:58:52;;;;;;;4.77;3.30;;;;;;;3.56;68.31;98996.50;6193715;22;96689;-85
2024/01/14 04:01:18;;;;;;;4.23;3.27;;;;;;;3.62;68.12;99014.50;6193243;22;101560;-82
2024/01/14 04:03:44;;;;;;;6.13;3.57;;;;;;;3.65;68.52;99013.56;6193507;22;97886;-87
2024/01/14 04:06:09;;;;;;;5.40;3.40;;;;;;;3.60;68.29;99008.50;6193675;22;96420;-84
2024/01/14 04:08:34;;;;;;;3.47;2.77;;;;;;;3.75;68.02;99009.81;6246607;22;96572;-84
2024/01/14 04:11:00;;;;;;;4.77;3.10;;;;;;;3.76;67.97;99024.53;6167120;22;101363;-83
2024/01/14 04:13:25;;;;;;;4.17;3.33;;;;;;;3.73;68.14;99002.09;6192946;22;101075;-83
2024/01/14 04:15:51;;;;;;;4.27;3.20;;;;;;;3.48;68.27;98973.34;6193659;22;96450;-83
2024/01/14 04:18:16;;;;;;;4.33;3.10;;;;;;;3.73;68.35;99015.06;6219046;22;96784;-83
2024/01/14 04:20:42;;;;;;;4.50;3.30;;;;;;;3.78;67.88;98994.16;6246069;22;97909;-83
2024/01/14 04:23:07;;;;;;;3.93;3.03;;;;;;;3.74;68.06;99006.38;6218421;22;101683;-83
2024/01/14 04:25:33;;;;;;;4.43;3.10;;;;;;;3.88;67.82;99010.38;6193052;22;96442;-83
2024/01/14 04:27:58;;;;;;;4.50;3.10;;;;;;;3.66;68.18;99008.31;6219711;22;96879;-83
2024/01/14 04:30:24;;;;;;;4.83;3.03;;;;;;;3.70;68.33;98999.59;6167690;22;101037;-84
2024/01/14 04:32:50;;;;;;;6.70;3.50;;;;;;;3.64;68.40;98986.78;6167515;22;101218;-83
2024/01/14 04:35:15;;;;;;;4.83;3.00;;;;;;;3.51;67.81;98954.25;6218145;22;96558;-83
2024/01/14 04:37:41;;;;;;;4.17;3.10;;;;;;;3.68;67.95;98988.38;6218933;22;96730;-83
2024/01/14 04:40:07;;;;;;;3.80;2.40;;;;;;;3.71;67.83;98990.91;6192951;22;98101;-82
2024/01/14 04:42:32;;;;;;;4.37;2.50;;;;;;;3.54;68.18;98967.16;6192696;22;101997;-83
2024/01/14 04:44:58;;;;;;;4.07;3.07;;;;;;;3.71;68.38;98997.84;6193465;22;96450;-84
2024/01/14 04:47:23;;;;;;;3.90;2.77;;;;;;;3.34;68.14;98932.19;6193778;22;96746;-82
2024/01/14 04:49:49;;;;;;;4.10;2.93;;;;;;;3.68;68.54;99001.38;6192954;22;101483;-86
2024/01/14 04:52:14;;;;;;;3.83;2.90;;;;;;;3.53;67.83;98961.09;6167190;22;99830;-83
2024/01/14 04:54:40;;;;;;;5.23;2.70;;;;;;;3.70;68.67;99004.78;6168111;22;96425;-84
2024/01/14 04:57:05;;;;;;;4.10;2.97;;;;;;;3.70;68.62;98996.16;6193341;22;96778;-83
2024/01/14 04:59:32;;;;;;;4.60;2.70;;;;;;;3.67;68.73;98994.47;6166965;22;101711;-83
2024/01/14 05:01:58;;;;;;;3.73;3.03;;;;;;;3.78;68.67;98981.19;6193031;22;98226;-83
2024/01/14 05:04:23;;;;;;;3.33;2.73;;;;;;;3.37;69.69;98949.44;6218829;22;96459;-83
2024/01/14 05:06:49;;;;;;;3.63;2.67;;;;;;;3.63;69.56;98983.31;6218857;22;96833;-82
2024/01/14 05:09:15;;;;;;;3.80;3.00;;;;;;;3.59;70.28;98975.66;6218473;22;98483;-85
2024/01/14 05:11:40;;;;;;;3.70;2.73;;;;;;;3.66;69.67;98982.38;6193016;22;97633;-83
2024/01/14 05:14:06;;;;;;;3.80;2.93;;;;;;;3.56;70.11;98958.44;6218747;22;96490;-83
2024/01/14 05:16:31;;;;;;;4.60;3.13;;;;;;;3.76;69.87;98978.66;6168298;22;97022;-82
2024/01/14 05:18:57;;;;;;;4.20;3.13;;;;;;;3.82;69.69;98975.88;6192802;22;97562;-82
2024/01/14 05:21:22;;;;;;;3.80;2.93;;;;;;;3.70;69.67;98973.63;6192906;22;98330;-82
2024/01/14 05:23:48;;;;;;;6.07;3.07;;;;;;;3.76;69.92;98973.47;6217902;22;96524;-83
2024/01/14 05:26:14;;;;;;;5.13;3.43;;;;;;;3.88;69.76;98977.47;6218966;22;96562;-84
2024/01/14 05:28:39;;;;;;;4.23;3.17;;;;;;;3.72;69.74;98956.25;6167436;22;101580;-85
2024/01/14 05:31:05;;;;;;;5.10;3.23;;;;;;;3.56;69.93;98937.66;6192746;22;101322;-84
2024/01/14 05:33:30;;;;;;;7.63;3.40;;;;;;;3.71;69.31;98951.13;6167765;22;96492;-85
2024/01/14 05:35:55;;;;;;;3.70;3.00;;;;;;;3.68;69.75;98962.44;6193173;22;96729;-84
2024/01/14 05:38:21;;;;;;;5.63;3.70;;;;;;;3.49;69.60;98940.47;6192570;22;99536;-84
2024/01/14 05:40:46;;;;;;;4.37;3.30;;;;;;;3.66;69.60;98969.41;6192985;22;96654;-84
2024/01/14 05:43:12;;;;;;;4.33;3.47;;;;;;;3.51;70.19;98941.28;6192926;22;96468;-83
2024/01/14 05:45:39;;;;;;;4.90;3.17;;;;;;;3.56;70.00;98948.06;6193149;22;96444;-83
2024/01/14 05:48:05;;;;;;;5.43;4.20;;;;;;;3.61;69.36;98953.13;6217919;22;97543;-82
2024/01/14 05:50:31;;;;;;;6.33;3.67;;;;;;;3.71;69.67;98959.75;6192500;22;101459;-82
2024/01/14 05:52:56;;;;;;;5.73;3.87;;;;;;;3.73;69.58;98972.69;6167434;22;96574;-84
2024/01/14 05:55:23;;;;;;;3.80;3.00;;;;;;;3.79;69.80;98986.34;6218460;22;96747;-83
2024/01/14 05:57:48;;;;;;;3.40;2.63;;;;;;;3.78;69.82;98984.66;6166980;22;101429;-83
2024/01/14 06:00:14;;;;;;;5.50;3.90;;;;;;;3.66;70.17;98974.59;6192463;22;101423;-83
2024/01/14 06:02:39;;;;;;;4.23;3.23;;;;;;;3.74;69.90;98984.78;6192906;22;96499;-83
2024/01/14 06:05:05;;;;;;;7.00;3.70;;;;;;;3.62;70.06;98968.63;6193200;22;96740;-83
2024/01/14 06:07:31;;;;;;;5.17;3.27;;;;;;;3.51;70.65;98965.47;6192437;22;100951;-83
2024/01/14 06:09:57;;;;;;;3.70;2.97;;;;;;;3.46;71.06;98971.69;6218117;22;97489;-83
2024/01/14 06:12:22;;;;;;;3.43;3.13;;;;;;;3.56;70.59;98958.44;6167068;22;96479;-82
2024/01/14 06:14:48;;;;;;;3.77;2.63;;;;;;;3.70;70.15;98973.63;6218436;22;96745;-82
2024/01/14 06:17:13;;;;;;;5.17;3.50;;;;;;;3.52;70.70;98976.69;6218102;22;98122;-82
2024/01/14 06:19:41;;;;;;;5.93;3.27;;;;;;;3.42;70.80;98967.47;6192573;22;97857;-83
2024/01/14 06:22:06;;;;;;;4.67;3.00;;;;;;;3.33;70.35;98940.88;6245885;22;96390;-82
2024/01/14 06:24:32;;;;;;;3.87;3.20;;;;;;;3.39;70.54;98950.25;6218442;22;96705;-83
2024/01/14 06:26:57;;;;;;;4.23;3.27;;;;;;;3.49;70.75;98966.41;6217962;22;100943;-82
2024/01/14 06:29:24;;;;;;;4.67;3.47;;;;;;;3.47;70.36;98960.44;6192884;22;100815;-83
2024/01/14 06:31:49;;;;;;;4.60;3.17;;;;;;;3.49;70.11;98945.66;6193259;22;96416;-82
2024/01/14 06:34:14;;;;;;;5.87;3.87;;;;;;;3.56;69.80;98958.44;6192917;22;96783;-86
2024/01/14 06:36:40;;;;;;;5.10;3.33;;;;;;;3.58;69.42;98951.47;6166386;22;101442;-84
2024/01/14 06:39:05;;;;;;;5.13;3.43;;;;;;;3.66;69.65;98960.75;6218020;22;97739;-84
2024/01/14 06:41:31;;;;;;;4.27;3.00;;;;;;;3.72;69.47;98961.44;6218461;22;96439;-84
2024/01/14 06:43:57;;;;;;;4.13;2.93;;;;;;;3.69;69.05;98940.75;6192606;22;96751;-82
2024/01/14 06:46:22;;;;;;;5.60;3.53;;;;;;;3.53;68.79;98935.16;6218073;22;97828;-82
2024/01/14 06:48:48;;;;;;;4.20;3.33;;;;;;;3.61;69.28;98956.56;6191468;22;99505;-82
2024/01/14 06:51:14;;;;;;;4.23;3.07;;;;;;;3.38;69.29;98954.59;6167378;22;96655;-83
2024/01/14 06:53:40;;;;;;;5.80;3.50;;;;;;;3.22;69.41;98918.72;6218421;22;96742;-84
2024/01/14 06:56:06;;;;;;;4.80;3.43;;;;;;;3.33;69.37;98940.88;6217697;22;97494;-83
2024/01/14 06:58:32;;;;;;;4.17;3.00;;;;;;;3.48;69.31;98975.09;6217835;22;97320;-83
2024/01/14 07:00:58;;;;;;;5.23;2.90;;;;;;;3.43;69.22;98954.44;6191519;22;96479;-83
2024/01/14 07:03:24;;;;;;;4.20;3.10;;;;;;;3.59;69.04;98976.50;6218118;22;96808;-82
2024/01/14 07:05:49;;;;;;;5.53;3.33;;;;;;;3.72;68.44;98969.22;6192123;22;99931;-83
2024/01/14 07:08:15;;;;;;;5.97;3.53;;;;;;;3.38;68.71;98944.22;6217937;22;97780;-86
2024/01/14 07:10:40;;;;;;;5.00;3.00;;;;;;;3.47;68.73;98966.47;6192512;22;96571;-85
2024/01/14 07:13:06;;;;;;;4.13;2.93;;;;;;;3.58;68.79;98985.19;6218256;22;96675;-85
2024/01/14 07:15:31;;;;;;;5.03;3.07;;;;;;;3.45;68.74;98963.06;6166812;22;101318;-83
2024/01/14 07:17:57;;;;;;;3.53;2.60;;;;;;;3.58;68.64;98990.38;6192610;22;97811;-82
2024/01/14 07:20:22;;;;;;;4.23;3.00;;;;;;;3.69;68.64;98997.03;6192583;22;96530;-82
2024/01/14 07:22:48;;;;;;;4.53;3.03;;;;;;;3.34;68.49;98962.47;6217972;22;96721;-82
2024/01/14 07:25:13;;;;;;;3.53;2.77;;;;;;;3.34;68.77;98965.91;6191435;22;97936;-83
2024/01/14 07:27:39;;;;;;;4.33;3.00;;;;;;;3.46;68.39;98988.13;6244923;22;97357;-83
2024/01/14 07:30:07;;;;;;;3.87;2.93;;;;;;;3.48;68.98;98988.06;6167182;22;96448;-83
2024/01/14 07:32:33;;;;;;;5.00;3.23;;;;;;;3.50;68.88;98994.91;6167394;22;96692;-82
2024/01/14 07:34:58;;;;;;;7.10;3.77;;;;;;;3.47;68.36;98974.25;6191911;22;101576;-82
2024/01/14 07:37:24;;;;;;;5.67;3.47;;;;;;;3.59;68.64;98992.06;6166594;22;101213;-83
2024/01/14 07:39:50;;;;;;;7.77;4.07;;;;;;;3.62;68.08;98980.78;6192209;22;96585;-84
2024/01/14 07:42:16;;;;;;;5.13;3.23;;;;;;;3.69;67.88;99000.47;6192584;22;96810;-84
2024/01/14 07:44:42;;;;;;;6.20;3.57;;;;;;;3.60;68.07;98969.56;6217385;22;97395;-84
2024/01/14 07:47:07;;;;;;;5.53;3.40;;;;;;;3.77;67.69;99006.28;6191666;22;101592;-83
2024/01/14 07:49:33;;;;;;;4.77;3.53;;;;;;;3.62;68.36;98994.59;6166243;22;96539;-82
2024/01/14 07:51:59;;;;;;;4.80;3.47;;;;;;;3.70;68.13;99009.13;6217160;22;96762;-83
2024/01/14 07:54:24;;;;;;;4.03;3.40;;;;;;;3.79;68.47;99014.91;6191630;22;101689;-83
2024/01/14 07:56:50;;;;;;;5.97;3.30;;;;;;;3.72;68.84;99022.88;6217136;22;100908;-82
2024/01/14 07:59:16;;;;;;;11.03;4.17;;;;;;;3.71;68.52;99018.59;6244905;22;96455;-86
2024/01/14 08:01:41;;;;;;;5.83;3.67;;;;;;;3.58;68.58;99000.75;6193403;22;96815;-83
2024/01/14 08:04:07;;;;;;;4.60;3.27;;;;;;;3.64;68.81;99017.91;6193261;22;97800;-84
2024/01/14 08:06:33;;;;;;;5.60;3.13;;;;;;;3.37;68.97;98977.97;6193677;22;101378;-83
2024/01/14 08:08:58;;;;;;;5.33;3.73;;;;;;;3.60;69.02;99022.31;6193238;22;96463;-83
2024/01/14 08:11:24;;;;;;;5.70;3.73;;;;;;;3.49;68.76;99000.13;6193455;22;96824;-82
2024/01/14 08:13:49;;;;;;;5.63;3.60;;;;;;;3.48;68.72;98999.28;6192695;22;98508;-82
2024/01/14 08:16:15;;;;;;;4.50;3.37;;;;;;;3.52;68.51;98994.88;6246018;22;97378;-82
2024/01/14 08:18:41;;;;;;;7.17;3.87;;;;;;;3.65;68.58;99017.03;6193469;22;96593;-82
2024/01/14 08:21:08;;;;;;;5.20;3.43;;;;;;;3.38;68.85;98969.31;6219277;22;96677;-83
2024/01/14 08:23:34;;;;;;;5.23;3.50;;;;;;;3.64;68.67;99012.72;6192686;22;101268;-82
2024/01/14 08:26:01;;;;;;;5.23;3.63;;;;;;;3.65;68.40;98998.84;6192966;22;101147;-83
2024/01/14 08:28:26;;;;;;;7.23;3.90;;;;;;;3.72;68.11;99009.91;6193407;22;96544;-84
2024/01/14 08:30:52;;;;;;;3.40;2.63;;;;;;;3.92;67.79;99027.53;6193576;22;96784;-83
2024/01/14 08:33:17;;;;;;;6.27;3.60;;;;;;;3.55;67.12;98974.03;6218446;22;101890;-83
2024/01/14 08:35:43;;;;;;;6.73;3.37;;;;;;;3.95;67.41;99030.06;6218555;22;97919;-84
2024/01/14 08:38:08;;;;;;;7.47;3.27;;;;;;;4.06;66.84;99030.63;6167422;22;96462;-82
2024/01/14 08:40:34;;;;;;;5.33;3.03;;;;;;;3.99;66.80;99031.69;6193437;22;96716;-83
2024/01/14 08:42:59;;;;;;;4.57;2.90;;;;;;;4.04;66.56;99035.00;6167613;22;101502;-83
2024/01/14 08:45:25;;;;;;;6.80;3.67;;;;;;;3.85;66.88;99035.50;6218365;22;100692;-82
2024/01/14 08:47:50;;;;;;;6.80;3.83;;;;;;;3.73;67.59;99014.22;6168053;22;96507;-83
2024/01/14 08:50:17;;;;;;;10.50;4.57;;;;;;;3.93;67.58;99043.09;6193507;22;96670;-82
2024/01/14 08:52:44;;;;;;;6.57;3.13;;;;;;;3.85;67.65;99025.13;6218216;22;97862;-83
2024/01/14 08:55:09;;;;;;;5.67;3.00;;;;;;;3.88;68.31;99026.78;6219130;22;96491;-83
2024/01/14 08:57:35;;;;;;;4.73;2.63;;;;;;;3.88;67.92;99041.50;6193448;22;96530;-83
2024/01/14 09:00:01;;;;;;;6.53;3.10;;;;;;;3.78;68.55;99018.41;6193064;22;96811;-85
2024/01/14 09:02:26;;;;;;;4.67;2.57;;;;;;;3.88;68.26;99036.31;6217800;22;98007;-85
2024/01/14 09:04:52;;;;;;;7.13;3.57;;;;;;;3.93;68.50;99040.50;6218363;22;98186;-83
2024/01/14 09:07:17;;;;;;;6.43;3.50;;;;;;;3.95;68.50;99061.22;6167768;22;96706;-83
2024/01/14 09:09:43;;;;;;;9.60;3.87;;;;;;;4.04;68.58;99064.44;6193170;22;96749;-83
2024/01/14 09:12:08;;;;;;;6.57;3.10;;;;;;;3.86;68.11;99034.59;6167257;22;102018;-83
2024/01/14 09:14:34;;;;;;;4.17;2.63;;;;;;;3.95;68.63;99050.81;6167532;22;101429;-83
2024/01/14 09:16:59;;;;;;;6.43;3.50;;;;;;;4.04;68.19;99061.84;6192989;22;96482;-83
2024/01/14 09:19:25;;;;;;;6.27;3.60;;;;;;;4.00;68.32;99049.81;6219230;22;96662;-83
2024/01/14 09:21:51;;;;;;;6.40;4.03;;;;;;;4.08;68.10;99066.03;6218349;22;101344;-83
2024/01/14 09:24:17;;;;;;;7.57;4.10;;;;;;;4.12;68.34;99061.59;6192892;22;97986;-85
2024/01/14 09:26:42;;;;;;;8.17;4.80;;;;;;;4.08;68.44;99040.06;6192384;22;96560;-84
2024/01/14 09:29:08;;;;;;;6.93;3.87;;;;;;;4.13;68.54;99057.25;6218785;22;96782;-84
2024/01/14 09:31:33;;;;;;;11.27;4.60;;;;;;;4.26;68.07;99074.22;6167324;22;101835;-83
2024/01/14 09:33:59;;;;;;;7.40;3.73;;;;;;;4.42;67.87;99064.22;6167190;22;101252;-83
2024/01/14 09:36:26;;;;;;;6.00;4.37;;;;;;;4.27;67.58;99030.00;6193233;22;96454;-83
2024/01/14 09:38:51;;;;;;;5.93;4.00;;;;;;;4.24;67.88;99043.06;6193418;22;96741;-86
2024/01/14 09:41:25;;;;;;;5.07;3.63;;;;;;;4.14;67.98;99040.78;6218245;22;97673;-82
2024/01/14 09:43:51;;;;;;;7.33;4.17;;;;;;;4.16;68.56;99058.03;6218600;22;101261;-82
2024/01/14 09:46:17;;;;;;;4.83;3.80;;;;;;;4.14;68.47;99071.97;6167737;22;96447;-83
2024/01/14 09:48:44;;;;;;;8.43;4.43;;;;;;;4.26;69.08;99062.06;6218480;22;96743;-84
2024/01/14 09:51:10;;;;;;;5.07;4.00;;;;;;;4.42;68.66;99061.63;6166720;22;101411;-82
2024/01/14 09:53:36;;;;;;;5.53;3.67;;;;;;;4.46;68.50;99014.72;6192465;22;97737;-83
2024/01/14 09:56:04;;;;;;;6.37;4.20;;;;;;;4.43;68.24;99040.81;6193111;22;96632;-83
2024/01/14 09:58:29;;;;;;;6.97;4.37;;;;;;;4.24;68.25;99014.50;6192759;22;96550;-85
2024/01/14 10:00:55;;;;;;;6.27;4.20;;;;;;;4.13;67.85;98984.53;6167070;22;101293;-82
2024/01/14 10:03:21;;;;;;;7.00;4.57;;;;;;;4.49;67.71;99022.44;6218222;22;97447;-84
2024/01/14 10:05:46;;;;;;;6.40;4.77;;;;;;;4.51;67.61;99018.03;6192948;22;96512;-83
2024/01/14 10:08:12;;;;;;;5.90;4.50;;;;;;;4.64;66.89;99028.91;6193507;22;96866;-86
2024/01/14 10:10:37;;;;;;;8.70;4.70;;;;;;;4.63;67.00;99013.38;6218007;22;98119;-84
2024/01/14 10:13:03;;;;;;;5.40;4.20;;;;;;;4.59;67.19;99023.00;6192438;22;101416;-83
2024/01/14 10:15:32;;;;;;;5.63;4.10;;;;;;;4.54;66.67;99022.31;6166964;22;96470;-83
2024/01/14 10:17:58;;;;;;;6.90;3.97;;;;;;;4.47;67.23;99018.16;6192658;22;96631;-84
2024/01/14 10:20:23;;;;;;;7.07;4.23;;;;;;;4.46;66.33;99014.72;6192561;22;100357;-83
2024/01/14 10:22:49;;;;;;;6.03;3.93;;;;;;;4.53;66.47;99003.22;6191068;22;100865;-83
2024/01/14 10:25:15;;;;;;;7.97;4.30;;;;;;;4.52;66.09;99011.09;6192573;22;96536;-83
2024/01/14 10:27:42;;;;;;;5.53;3.60;;;;;;;4.63;66.14;99021.19;6192737;22;96813;-82
2024/01/14 10:30:12;;;;;;;5.80;4.40;;;;;;;4.43;65.99;98977.59;6192327;22;102040;-83
2024/01/14 10:32:38;;;;;;;6.57;4.03;;;;;;;4.80;65.79;98990.31;6168030;22;101447;-83
2024/01/14 10:35:12;;;;;;;6.13;3.87;;;;;;;4.69;66.20;98990.63;6218654;22;96532;-83
2024/01/14 10:37:39;;;;;;;9.27;4.90;;;;;;;4.75;65.78;99003.44;6193716;22;96510;-83
2024/01/14 10:40:08;;;;;;;7.93;4.73;;;;;;;4.60;65.95;98977.94;6217322;22;97930;-85
2024/01/14 10:42:35;;;;;;;10.13;5.33;;;;;;;4.75;65.43;98979.19;6167527;22;101485;-84
2024/01/14 10:45:00;;;;;;;8.85;4.93;;;;;;;4.84;65.53;98997.09;6192551;22;96601;-84
2024/01/14 10:47:27;;;;;;;9.40;4.47;;;;;;;4.85;65.13;98987.53;6193150;22;96758;-85
2024/01/14 10:49:54;;;;;;;6.60;4.10;;;;;;;4.85;65.11;98982.34;6166433;22;100176;-85
2024/01/14 10:52:21;;;;;;;6.60;3.80;;;;;;;4.78;66.38;98983.44;6166674;22;101241;-83
2024/01/14 10:54:50;;;;;;;5.93;4.00;;;;;;;4.55;66.42;98959.03;6192716;22;96648;-84
2024/01/14 10:57:37;;;;;;;6.30;3.77;;;;;;;4.74;66.74;98983.56;6218847;22;96685;-82
2024/01/14 11:00:08;;;;;;;6.37;4.03;;;;;;;4.77;66.16;98980.00;6217995;22;97609;-84
2024/01/14 11:02:36;;;;;;;7.53;4.13;;;;;;;4.79;66.23;98953.94;6192183;22;100444;-83
2024/01/14 11:05:03;;;;;;;4.68;3.38;;;;;;;5.03;65.88;98968.72;6217648;22;96618;-84
2024/01/14 11:07:31;;;;;;;6.23;3.30;;;;;;;5.04;65.43;98967.00;6192214;22;96847;-84
2024/01/14 11:09:56;;;;;;;5.13;3.53;;;;;;;4.97;64.95;98959.41;6191694;22;101741;-83
2024/01/14 11:12:41;;;;;;;8.00;3.80;;;;;;;4.91;65.53;98969.13;6166990;22;100016;-84
2024/01/14 11:15:12;;;;;;;5.10;3.47;;;;;;;4.85;65.06;98951.97;6218238;22;96996;-83
2024/01/14 11:18:11;;;;;;;6.33;4.07;;;;;;;4.92;65.01;98963.91;6166943;22;96733;-86
2024/01/14 11:20:38;;;;;;;6.03;3.50;;;;;;;4.95;65.23;98965.56;6217625;22;101480;-84
2024/01/14 11:23:05;;;;;;;6.23;3.63;;;;;;;4.84;65.26;98968.50;6167088;22;101446;-84
2024/01/14 11:25:32;;;;;;;7.15;3.90;;;;;;;4.82;65.53;98948.66;6192416;22;96520;-84
2024/01/14 11:27:59;;;;;;;5.80;3.70;;;;;;;4.81;65.88;98953.00;6192074;22;96503;-84
2024/01/14 11:30:47;;;;;;;6.50;3.60;;;;;;;4.91;65.82;98950.94;6191514;22;97730;-83
2024/01/14 11:33:31;;;;;;;6.43;4.03;;;;;;;4.87;65.95;98951.94;6217498;22;101074;-85